sensor_id;sensor_type;location;lat;lon;timestamp;temperature;humidity
8676;DHT22;4375;52.486;13.424;2022-08-01T00:00:34;22.50;99.90
8676;DHT22;4375;52.486;13.424;2022-08-01T00:03:00;22.60;99.90
8676;DHT22;4375;52.486;13.424;2022-08-01T00:05:26;22.50;99.90
8676;DHT22;4375;52.486;13.424;2022-08-01T00:07:52;22.50;99.90
8676;DHT22;4375;52.486;13.424;2022-08-01T00:10:18;22.50;99.90
8676;DHT22;4375;52.486;13.424;2022-08-01T00:12:44;22.40;99.90
8676;DHT22;4375;52.486;13.424;2022-08-01T00:15:14;22.40;99.90
8676;DHT22;4375;52.486;13.424;2022-08-01T00:17:40;22.30;99.90
8676;DHT22;4375;52.486;13.424;2022-08-01T00:20:09;22.30;99.90
8676;DHT22;4375;52.486;13.424;2022-08-01T00:22:35;22.30;99.90
8676;DHT22;4375;52.486;13.424;2022-08-01T00:25:01;22.20;99.90
8676;DHT22;4375;52.486;13.424;2022-08-01T00:27:27;22.20;99.90
8676;DHT22;4375;52.486;13.424;2022-08-01T00:29:52;22.10;99.90
8676;DHT22;4375;52.486;13.424;2022-08-01T00:32:18;22.10;99.90
8676;DHT22;4375;52.486;13.424;2022-08-01T00:34:44;22.00;99.90
8676;DHT22;4375;52.486;13.424;2022-08-01T00:37:10;22.10;99.90
8676;DHT22;4375;52.486;13.424;2022-08-01T00:39:35;22.00;99.90
8676;DHT22;4375;52.486;13.424;2022-08-01T00:42:09;22.00;99.90
8676;DHT22;4375;52.486;13.424;2022-08-01T00:44:35;22.00;99.90
8676;DHT22;4375;52.486;13.424;2022-08-01T00:47:01;22.00;99.90
8676;DHT22;4375;52.486;13.424;2022-08-01T00:49:27;22.00;99.90
8676;DHT22;4375;52.486;13.424;2022-08-01T00:51:53;22.00;99.90
8676;DHT22;4375;52.486;13.424;2022-08-01T00:54:19;21.90;99.90
8676;DHT22;4375;52.486;13.424;2022-08-01T00:56:45;21.90;99.90
8676;DHT22;4375;52.486;13.424;2022-08-01T00:59:11;21.90;99.90
8676;DHT22;4375;52.486;13.424;2022-08-01T01:01:37;21.90;99.90
8676;DHT22;4375;52.486;13.424;2022-08-01T01:04:03;21.90;99.90
8676;DHT22;4375;52.486;13.424;2022-08-01T01:17:46;21.80;99.90
8676;DHT22;4375;52.486;13.424;2022-08-01T01:20:13;21.80;99.90
8676;DHT22;4375;52.486;13.424;2022-08-01T01:22:47;21.70;99.90
8676;DHT22;4375;52.486;13.424;2022-08-01T01:30:31;21.70;99.90
8676;DHT22;4375;52.486;13.424;2022-08-01T01:33:01;21.70;99.90
8676;DHT22;4375;52.486;13.424;2022-08-01T01:35:31;21.60;99.90
8676;DHT22;4375;52.486;13.424;2022-08-01T01:38:28;21.70;99.90
8676;DHT22;4375;52.486;13.424;2022-08-01T01:40:55;21.60;99.90
8676;DHT22;4375;52.486;13.424;2022-08-01T01:43:23;21.60;99.90
8676;DHT22;4375;52.486;13.424;2022-08-01T01:45:50;21.60;99.90
8676;DHT22;4375;52.486;13.424;2022-08-01T01:48:18;21.60;99.90
8676;DHT22;4375;52.486;13.424;2022-08-01T01:50:48;21.60;99.90
8676;DHT22;4375;52.486;13.424;2022-08-01T01:53:17;21.60;99.90
8676;DHT22;4375;52.486;13.424;2022-08-01T01:55:46;21.70;99.90
8676;DHT22;4375;52.486;13.424;2022-08-01T01:58:14;21.70;99.90
8676;DHT22;4375;52.486;13.424;2022-08-01T02:00:42;21.70;99.90
8676;DHT22;4375;52.486;13.424;2022-08-01T02:03:11;21.70;99.90
8676;DHT22;4375;52.486;13.424;2022-08-01T02:05:38;21.60;99.90
8676;DHT22;4375;52.486;13.424;2022-08-01T02:08:06;21.50;99.90
8676;DHT22;4375;52.486;13.424;2022-08-01T02:10:34;21.30;99.90
8676;DHT22;4375;52.486;13.424;2022-08-01T02:13:03;21.30;99.90
8676;DHT22;4375;52.486;13.424;2022-08-01T02:15:34;21.40;99.90
8676;DHT22;4375;52.486;13.424;2022-08-01T02:18:03;21.40;99.90
8676;DHT22;4375;52.486;13.424;2022-08-01T02:20:34;21.20;99.90
8676;DHT22;4375;52.486;13.424;2022-08-01T02:23:12;21.20;99.90
8676;DHT22;4375;52.486;13.424;2022-08-01T02:25:46;21.10;99.90
8676;DHT22;4375;52.486;13.424;2022-08-01T02:28:35;21.10;99.90
8676;DHT22;4375;52.486;13.424;2022-08-01T02:31:04;21.00;99.90
8676;DHT22;4375;52.486;13.424;2022-08-01T02:33:37;21.00;99.90
8676;DHT22;4375;52.486;13.424;2022-08-01T02:36:03;20.90;99.90
8676;DHT22;4375;52.486;13.424;2022-08-01T02:38:34;20.80;99.90
8676;DHT22;4375;52.486;13.424;2022-08-01T02:41:05;20.80;99.90
8676;DHT22;4375;52.486;13.424;2022-08-01T02:43:34;20.80;99.90
8676;DHT22;4375;52.486;13.424;2022-08-01T02:46:02;20.80;99.90
8676;DHT22;4375;52.486;13.424;2022-08-01T02:48:32;20.70;99.90
8676;DHT22;4375;52.486;13.424;2022-08-01T02:51:01;20.60;99.90
8676;DHT22;4375;52.486;13.424;2022-08-01T02:53:31;20.70;99.90
8676;DHT22;4375;52.486;13.424;2022-08-01T02:55:57;20.80;99.90
8676;DHT22;4375;52.486;13.424;2022-08-01T02:58:24;20.80;99.90
8676;DHT22;4375;52.486;13.424;2022-08-01T03:00:51;20.80;99.90
8676;DHT22;4375;52.486;13.424;2022-08-01T03:03:17;20.70;99.90
8676;DHT22;4375;52.486;13.424;2022-08-01T03:05:44;20.70;99.90
8676;DHT22;4375;52.486;13.424;2022-08-01T03:08:11;20.70;99.90
8676;DHT22;4375;52.486;13.424;2022-08-01T03:10:40;20.50;99.90
8676;DHT22;4375;52.486;13.424;2022-08-01T03:13:09;20.80;99.90
8676;DHT22;4375;52.486;13.424;2022-08-01T03:15:38;20.80;99.90
8676;DHT22;4375;52.486;13.424;2022-08-01T03:18:07;20.70;99.90
8676;DHT22;4375;52.486;13.424;2022-08-01T03:20:34;20.70;99.90
8676;DHT22;4375;52.486;13.424;2022-08-01T03:23:01;20.50;99.90
8676;DHT22;4375;52.486;13.424;2022-08-01T03:25:29;20.70;99.90
8676;DHT22;4375;52.486;13.424;2022-08-01T03:27:59;20.70;99.90
8676;DHT22;4375;52.486;13.424;2022-08-01T03:30:27;20.60;99.90
8676;DHT22;4375;52.486;13.424;2022-08-01T03:32:53;20.60;99.90
8676;DHT22;4375;52.486;13.424;2022-08-01T03:35:22;20.60;99.90
8676;DHT22;4375;52.486;13.424;2022-08-01T03:37:52;20.60;99.90
8676;DHT22;4375;52.486;13.424;2022-08-01T03:40:24;20.70;99.90
8676;DHT22;4375;52.486;13.424;2022-08-01T03:42:56;20.70;99.90
8676;DHT22;4375;52.486;13.424;2022-08-01T03:45:30;20.60;99.90
8676;DHT22;4375;52.486;13.424;2022-08-01T03:48:01;20.30;99.90
8676;DHT22;4375;52.486;13.424;2022-08-01T03:50:29;20.70;99.90
8676;DHT22;4375;52.486;13.424;2022-08-01T03:53:00;20.80;99.90
8676;DHT22;4375;52.486;13.424;2022-08-01T03:55:27;20.80;99.90
8676;DHT22;4375;52.486;13.424;2022-08-01T03:57:54;20.80;99.90
8676;DHT22;4375;52.486;13.424;2022-08-01T04:00:20;20.80;99.90
8676;DHT22;4375;52.486;13.424;2022-08-01T04:02:47;20.80;99.90
8676;DHT22;4375;52.486;13.424;2022-08-01T04:05:14;20.80;99.90
8676;DHT22;4375;52.486;13.424;2022-08-01T04:07:40;20.80;99.90
8676;DHT22;4375;52.486;13.424;2022-08-01T04:10:11;20.80;99.90
8676;DHT22;4375;52.486;13.424;2022-08-01T04:12:36;20.80;99.90
8676;DHT22;4375;52.486;13.424;2022-08-01T04:15:03;20.80;99.90
8676;DHT22;4375;52.486;13.424;2022-08-01T04:17:29;20.80;99.90
8676;DHT22;4375;52.486;13.424;2022-08-01T04:19:55;20.80;99.90
8676;DHT22;4375;52.486;13.424;2022-08-01T04:22:21;20.80;99.90
8676;DHT22;4375;52.486;13.424;2022-08-01T04:24:48;20.90;99.90
8676;DHT22;4375;52.486;13.424;2022-08-01T04:27:21;20.90;99.90
8676;DHT22;4375;52.486;13.424;2022-08-01T04:29:49;21.00;99.90
8676;DHT22;4375;52.486;13.424;2022-08-01T04:32:18;21.00;99.90
8676;DHT22;4375;52.486;13.424;2022-08-01T04:34:46;21.00;99.90
8676;DHT22;4375;52.486;13.424;2022-08-01T04:37:13;21.10;99.90
8676;DHT22;4375;52.486;13.424;2022-08-01T04:39:42;20.50;99.90
8676;DHT22;4375;52.486;13.424;2022-08-01T04:42:13;20.90;99.90
8676;DHT22;4375;52.486;13.424;2022-08-01T04:44:40;20.90;99.90
8676;DHT22;4375;52.486;13.424;2022-08-01T04:47:07;21.00;99.90
8676;DHT22;4375;52.486;13.424;2022-08-01T04:49:34;21.10;99.90
8676;DHT22;4375;52.486;13.424;2022-08-01T04:52:01;21.10;99.90
8676;DHT22;4375;52.486;13.424;2022-08-01T04:54:29;21.00;99.90
8676;DHT22;4375;52.486;13.424;2022-08-01T04:56:55;20.90;99.90
8676;DHT22;4375;52.486;13.424;2022-08-01T04:59:28;20.80;99.90
8676;DHT22;4375;52.486;13.424;2022-08-01T05:04:33;20.90;99.90
8676;DHT22;4375;52.486;13.424;2022-08-01T05:06:59;20.80;99.90
8676;DHT22;4375;52.486;13.424;2022-08-01T05:09:25;20.90;99.90
8676;DHT22;4375;52.486;13.424;2022-08-01T05:11:51;20.80;99.90
8676;DHT22;4375;52.486;13.424;2022-08-01T05:14:17;20.80;99.90
8676;DHT22;4375;52.486;13.424;2022-08-01T05:16:43;20.90;99.90
8676;DHT22;4375;52.486;13.424;2022-08-01T05:19:09;20.90;99.90
8676;DHT22;4375;52.486;13.424;2022-08-01T05:21:35;20.90;99.90
8676;DHT22;4375;52.486;13.424;2022-08-01T05:24:01;20.90;99.90
8676;DHT22;4375;52.486;13.424;2022-08-01T05:26:27;20.80;99.90
8676;DHT22;4375;52.486;13.424;2022-08-01T05:28:53;20.90;99.90
8676;DHT22;4375;52.486;13.424;2022-08-01T05:31:19;20.90;99.90
8676;DHT22;4375;52.486;13.424;2022-08-01T05:33:44;20.90;99.90
8676;DHT22;4375;52.486;13.424;2022-08-01T05:36:10;20.90;99.90
8676;DHT22;4375;52.486;13.424;2022-08-01T05:38:36;21.00;99.90
8676;DHT22;4375;52.486;13.424;2022-08-01T05:41:02;20.90;99.90
8676;DHT22;4375;52.486;13.424;2022-08-01T05:43:28;21.00;99.90
8676;DHT22;4375;52.486;13.424;2022-08-01T05:45:54;21.00;99.90
8676;DHT22;4375;52.486;13.424;2022-08-01T05:48:20;20.00;99.90
8676;DHT22;4375;52.486;13.424;2022-08-01T05:50:46;21.00;99.90
8676;DHT22;4375;52.486;13.424;2022-08-01T05:53:16;21.00;99.90
8676;DHT22;4375;52.486;13.424;2022-08-01T05:55:42;21.00;99.90
8676;DHT22;4375;52.486;13.424;2022-08-01T05:58:08;21.10;99.90
8676;DHT22;4375;52.486;13.424;2022-08-01T06:00:34;21.20;99.90
8676;DHT22;4375;52.486;13.424;2022-08-01T06:02:59;21.30;99.90
8676;DHT22;4375;52.486;13.424;2022-08-01T06:05:25;21.40;99.90
8676;DHT22;4375;52.486;13.424;2022-08-01T06:07:56;21.40;99.90
8676;DHT22;4375;52.486;13.424;2022-08-01T06:10:23;21.40;99.90
8676;DHT22;4375;52.486;13.424;2022-08-01T06:12:49;21.30;99.90
8676;DHT22;4375;52.486;13.424;2022-08-01T06:15:15;21.70;99.90
8676;DHT22;4375;52.486;13.424;2022-08-01T06:17:41;21.70;99.90
8676;DHT22;4375;52.486;13.424;2022-08-01T06:20:08;21.90;99.90
8676;DHT22;4375;52.486;13.424;2022-08-01T06:22:34;21.60;99.90
8676;DHT22;4375;52.486;13.424;2022-08-01T06:25:00;21.40;99.90
8676;DHT22;4375;52.486;13.424;2022-08-01T06:27:25;21.70;99.90
8676;DHT22;4375;52.486;13.424;2022-08-01T06:29:51;20.60;99.90
8676;DHT22;4375;52.486;13.424;2022-08-01T06:32:21;21.50;99.90
8676;DHT22;4375;52.486;13.424;2022-08-01T06:34:51;21.40;99.90
8676;DHT22;4375;52.486;13.424;2022-08-01T06:37:17;21.30;99.90
8676;DHT22;4375;52.486;13.424;2022-08-01T06:39:43;21.30;99.90
8676;DHT22;4375;52.486;13.424;2022-08-01T06:42:09;21.20;99.90
8676;DHT22;4375;52.486;13.424;2022-08-01T06:44:35;21.30;99.90
8676;DHT22;4375;52.486;13.424;2022-08-01T06:47:01;21.30;99.90
8676;DHT22;4375;52.486;13.424;2022-08-01T06:49:27;21.40;99.90
8676;DHT22;4375;52.486;13.424;2022-08-01T06:51:53;21.50;99.90
8676;DHT22;4375;52.486;13.424;2022-08-01T06:54:19;21.50;99.90
8676;DHT22;4375;52.486;13.424;2022-08-01T06:56:45;21.60;99.90
8676;DHT22;4375;52.486;13.424;2022-08-01T06:59:10;21.90;99.90
8676;DHT22;4375;52.486;13.424;2022-08-01T07:01:36;21.80;99.90
8676;DHT22;4375;52.486;13.424;2022-08-01T07:04:02;22.20;99.90
8676;DHT22;4375;52.486;13.424;2022-08-01T07:06:28;22.50;99.90
8676;DHT22;4375;52.486;13.424;2022-08-01T07:08:54;22.50;99.90
8676;DHT22;4375;52.486;13.424;2022-08-01T07:11:21;22.40;99.90
8676;DHT22;4375;52.486;13.424;2022-08-01T07:13:50;22.30;99.90
8676;DHT22;4375;52.486;13.424;2022-08-01T07:16:17;22.20;99.90
8676;DHT22;4375;52.486;13.424;2022-08-01T07:18:43;22.20;99.90
8676;DHT22;4375;52.486;13.424;2022-08-01T07:21:08;22.20;99.90
8676;DHT22;4375;52.486;13.424;2022-08-01T07:23:34;22.00;99.90
8676;DHT22;4375;52.486;13.424;2022-08-01T07:26:00;22.00;99.90
8676;DHT22;4375;52.486;13.424;2022-08-01T07:28:29;22.00;99.90
8676;DHT22;4375;52.486;13.424;2022-08-01T07:30:55;21.90;99.90
8676;DHT22;4375;52.486;13.424;2022-08-01T07:33:21;21.80;99.90
8676;DHT22;4375;52.486;13.424;2022-08-01T07:35:47;21.90;99.90
8676;DHT22;4375;52.486;13.424;2022-08-01T07:38:13;21.90;99.90
8676;DHT22;4375;52.486;13.424;2022-08-01T07:40:42;21.90;99.90
8676;DHT22;4375;52.486;13.424;2022-08-01T07:43:08;21.80;99.90
8676;DHT22;4375;52.486;13.424;2022-08-01T07:45:34;21.70;99.90
8676;DHT22;4375;52.486;13.424;2022-08-01T07:48:04;21.90;99.90
8676;DHT22;4375;52.486;13.424;2022-08-01T07:50:32;22.00;99.90
8676;DHT22;4375;52.486;13.424;2022-08-01T07:52:59;22.40;99.90
8676;DHT22;4375;52.486;13.424;2022-08-01T07:55:25;22.80;99.90
8676;DHT22;4375;52.486;13.424;2022-08-01T07:57:51;22.80;99.90
8676;DHT22;4375;52.486;13.424;2022-08-01T08:00:17;22.90;99.90
8676;DHT22;4375;52.486;13.424;2022-08-01T08:02:44;23.00;99.90
8676;DHT22;4375;52.486;13.424;2022-08-01T08:05:10;23.00;99.90
8676;DHT22;4375;52.486;13.424;2022-08-01T08:07:42;23.00;99.90
8676;DHT22;4375;52.486;13.424;2022-08-01T08:10:08;22.80;99.90
8676;DHT22;4375;52.486;13.424;2022-08-01T08:12:36;22.70;99.90
8676;DHT22;4375;52.486;13.424;2022-08-01T08:15:02;22.50;99.90
8676;DHT22;4375;52.486;13.424;2022-08-01T08:17:31;21.50;99.90
8676;DHT22;4375;52.486;13.424;2022-08-01T08:19:57;22.20;99.90
8676;DHT22;4375;52.486;13.424;2022-08-01T08:22:25;22.10;99.90
8676;DHT22;4375;52.486;13.424;2022-08-01T08:24:51;21.80;99.90
8676;DHT22;4375;52.486;13.424;2022-08-01T08:27:19;21.80;99.90
8676;DHT22;4375;52.486;13.424;2022-08-01T08:29:48;21.90;99.90
8676;DHT22;4375;52.486;13.424;2022-08-01T08:32:14;21.90;99.90
8676;DHT22;4375;52.486;13.424;2022-08-01T08:34:42;21.80;99.90
8676;DHT22;4375;52.486;13.424;2022-08-01T08:37:08;21.90;99.90
8676;DHT22;4375;52.486;13.424;2022-08-01T08:39:34;21.90;99.90
8676;DHT22;4375;52.486;13.424;2022-08-01T08:42:00;21.90;99.90
8676;DHT22;4375;52.486;13.424;2022-08-01T08:44:28;22.10;99.90
8676;DHT22;4375;52.486;13.424;2022-08-01T08:46:55;22.10;99.90
8676;DHT22;4375;52.486;13.424;2022-08-01T08:49:26;22.10;99.90
8676;DHT22;4375;52.486;13.424;2022-08-01T08:51:52;22.30;99.90
8676;DHT22;4375;52.486;13.424;2022-08-01T08:54:21;22.50;99.90
8676;DHT22;4375;52.486;13.424;2022-08-01T08:56:47;22.80;99.90
8676;DHT22;4375;52.486;13.424;2022-08-01T08:59:14;23.10;99.90
8676;DHT22;4375;52.486;13.424;2022-08-01T09:01:41;23.20;99.90
8676;DHT22;4375;52.486;13.424;2022-08-01T09:04:07;23.20;99.90
8676;DHT22;4375;52.486;13.424;2022-08-01T09:06:33;23.10;99.90
8676;DHT22;4375;52.486;13.424;2022-08-01T09:08:59;22.90;99.90
8676;DHT22;4375;52.486;13.424;2022-08-01T09:11:25;22.90;99.90
8676;DHT22;4375;52.486;13.424;2022-08-01T09:14:14;22.80;99.90
8676;DHT22;4375;52.486;13.424;2022-08-01T09:16:47;23.10;99.90
8676;DHT22;4375;52.486;13.424;2022-08-01T09:19:24;23.20;99.90
8676;DHT22;4375;52.486;13.424;2022-08-01T09:22:01;23.10;99.90
8676;DHT22;4375;52.486;13.424;2022-08-01T09:24:30;23.00;99.90
8676;DHT22;4375;52.486;13.424;2022-08-01T09:26:56;23.00;99.90
8676;DHT22;4375;52.486;13.424;2022-08-01T09:29:27;23.00;99.90
8676;DHT22;4375;52.486;13.424;2022-08-01T09:31:53;22.90;99.90
8676;DHT22;4375;52.486;13.424;2022-08-01T09:34:29;22.80;99.90
8676;DHT22;4375;52.486;13.424;2022-08-01T09:37:00;22.70;99.90
8676;DHT22;4375;52.486;13.424;2022-08-01T09:39:31;22.70;99.90
8676;DHT22;4375;52.486;13.424;2022-08-01T09:41:58;22.70;99.90
8676;DHT22;4375;52.486;13.424;2022-08-01T09:44:39;22.70;99.90
8676;DHT22;4375;52.486;13.424;2022-08-01T09:47:05;23.10;99.90
8676;DHT22;4375;52.486;13.424;2022-08-01T09:49:36;23.10;99.90
8676;DHT22;4375;52.486;13.424;2022-08-01T09:54:37;23.20;99.90
8676;DHT22;4375;52.486;13.424;2022-08-01T09:57:17;23.10;99.90
8676;DHT22;4375;52.486;13.424;2022-08-01T09:59:45;22.90;99.90
8676;DHT22;4375;52.486;13.424;2022-08-01T10:02:13;22.80;99.90
8676;DHT22;4375;52.486;13.424;2022-08-01T10:04:50;22.90;99.90
8676;DHT22;4375;52.486;13.424;2022-08-01T10:07:17;22.80;99.90
8676;DHT22;4375;52.486;13.424;2022-08-01T10:09:44;22.80;99.90
8676;DHT22;4375;52.486;13.424;2022-08-01T10:12:12;22.70;99.90
8676;DHT22;4375;52.486;13.424;2022-08-01T10:14:40;22.80;99.90
8676;DHT22;4375;52.486;13.424;2022-08-01T10:17:10;22.80;99.90
8676;DHT22;4375;52.486;13.424;2022-08-01T10:19:37;23.10;99.90
8676;DHT22;4375;52.486;13.424;2022-08-01T10:22:08;23.20;99.90
8676;DHT22;4375;52.486;13.424;2022-08-01T10:24:38;23.30;99.90
8676;DHT22;4375;52.486;13.424;2022-08-01T10:27:07;23.50;99.90
8676;DHT22;4375;52.486;13.424;2022-08-01T10:29:47;23.60;99.90
8676;DHT22;4375;52.486;13.424;2022-08-01T10:32:16;23.70;99.90
8676;DHT22;4375;52.486;13.424;2022-08-01T10:34:42;23.60;99.90
8676;DHT22;4375;52.486;13.424;2022-08-01T10:37:08;23.60;99.90
8676;DHT22;4375;52.486;13.424;2022-08-01T10:39:35;23.60;99.90
8676;DHT22;4375;52.486;13.424;2022-08-01T10:42:01;23.60;99.90
8676;DHT22;4375;52.486;13.424;2022-08-01T10:44:29;23.70;99.90
8676;DHT22;4375;52.486;13.424;2022-08-01T10:47:10;23.50;99.90
8676;DHT22;4375;52.486;13.424;2022-08-01T10:49:41;23.60;99.90
8676;DHT22;4375;52.486;13.424;2022-08-01T10:52:14;23.60;99.90
8676;DHT22;4375;52.486;13.424;2022-08-01T10:54:40;23.60;99.90
8676;DHT22;4375;52.486;13.424;2022-08-01T10:57:06;23.40;99.90
8676;DHT22;4375;52.486;13.424;2022-08-01T10:59:32;23.30;99.90
8676;DHT22;4375;52.486;13.424;2022-08-01T11:02:03;23.40;99.90
8676;DHT22;4375;52.486;13.424;2022-08-01T11:04:54;23.40;99.90
8676;DHT22;4375;52.486;13.424;2022-08-01T11:12:45;23.40;99.90
8676;DHT22;4375;52.486;13.424;2022-08-01T11:17:41;23.50;99.90
8676;DHT22;4375;52.486;13.424;2022-08-01T11:20:21;23.80;99.90
8676;DHT22;4375;52.486;13.424;2022-08-01T11:25:26;24.20;99.90
8676;DHT22;4375;52.486;13.424;2022-08-01T11:30:49;24.10;99.90
8676;DHT22;4375;52.486;13.424;2022-08-01T11:33:19;23.90;99.90
8676;DHT22;4375;52.486;13.424;2022-08-01T11:41:27;23.20;99.90
8676;DHT22;4375;52.486;13.424;2022-08-01T11:44:00;23.20;99.90
8676;DHT22;4375;52.486;13.424;2022-08-01T11:52:08;22.50;99.90
8676;DHT22;4375;52.486;13.424;2022-08-01T11:54:38;22.50;99.90
8676;DHT22;4375;52.486;13.424;2022-08-01T11:57:06;22.50;99.90
8676;DHT22;4375;52.486;13.424;2022-08-01T11:59:37;22.50;99.90
8676;DHT22;4375;52.486;13.424;2022-08-01T12:02:03;22.70;99.90
8676;DHT22;4375;52.486;13.424;2022-08-01T12:04:45;22.90;99.90
8676;DHT22;4375;52.486;13.424;2022-08-01T12:07:14;23.30;99.90
8676;DHT22;4375;52.486;13.424;2022-08-01T12:09:40;23.50;99.90
8676;DHT22;4375;52.486;13.424;2022-08-01T12:12:06;23.70;99.90
8676;DHT22;4375;52.486;13.424;2022-08-01T12:14:32;23.90;99.90
8676;DHT22;4375;52.486;13.424;2022-08-01T12:16:58;24.10;99.90
8676;DHT22;4375;52.486;13.424;2022-08-01T12:19:24;24.20;99.90
8676;DHT22;4375;52.486;13.424;2022-08-01T12:22:11;24.50;99.90
8676;DHT22;4375;52.486;13.424;2022-08-01T12:24:39;24.60;99.90
8676;DHT22;4375;52.486;13.424;2022-08-01T12:27:06;24.80;99.90
8676;DHT22;4375;52.486;13.424;2022-08-01T12:29:40;25.00;99.90
8676;DHT22;4375;52.486;13.424;2022-08-01T12:34:54;25.30;99.90
8676;DHT22;4375;52.486;13.424;2022-08-01T12:37:21;25.40;99.90
8676;DHT22;4375;52.486;13.424;2022-08-01T12:39:47;25.40;99.90
8676;DHT22;4375;52.486;13.424;2022-08-01T12:42:14;25.40;99.90
8676;DHT22;4375;52.486;13.424;2022-08-01T12:44:41;25.50;99.90
8676;DHT22;4375;52.486;13.424;2022-08-01T12:47:08;25.30;99.90
8676;DHT22;4375;52.486;13.424;2022-08-01T12:49:37;25.30;99.90
8676;DHT22;4375;52.486;13.424;2022-08-01T12:52:04;25.60;99.90
8676;DHT22;4375;52.486;13.424;2022-08-01T12:54:30;25.70;99.90
8676;DHT22;4375;52.486;13.424;2022-08-01T12:56:56;25.70;99.90
8676;DHT22;4375;52.486;13.424;2022-08-01T12:59:27;25.70;99.90
8676;DHT22;4375;52.486;13.424;2022-08-01T13:01:56;25.80;99.90
8676;DHT22;4375;52.486;13.424;2022-08-01T13:04:22;25.80;99.90
8676;DHT22;4375;52.486;13.424;2022-08-01T13:06:54;25.70;99.90
8676;DHT22;4375;52.486;13.424;2022-08-01T13:09:22;25.90;99.90
8676;DHT22;4375;52.486;13.424;2022-08-01T13:11:48;25.80;99.90
8676;DHT22;4375;52.486;13.424;2022-08-01T13:14:30;25.70;99.90
8676;DHT22;4375;52.486;13.424;2022-08-01T13:16:56;25.50;99.90
8676;DHT22;4375;52.486;13.424;2022-08-01T13:19:43;25.60;99.90
8676;DHT22;4375;52.486;13.424;2022-08-01T13:22:09;25.30;99.90
8676;DHT22;4375;52.486;13.424;2022-08-01T13:24:35;25.10;99.90
8676;DHT22;4375;52.486;13.424;2022-08-01T13:27:02;24.90;99.90
8676;DHT22;4375;52.486;13.424;2022-08-01T13:29:39;24.70;99.90
8676;DHT22;4375;52.486;13.424;2022-08-01T13:32:18;24.40;99.90
8676;DHT22;4375;52.486;13.424;2022-08-01T13:34:44;24.40;99.90
8676;DHT22;4375;52.486;13.424;2022-08-01T13:37:10;24.40;99.90
8676;DHT22;4375;52.486;13.424;2022-08-01T13:39:36;24.60;99.90
8676;DHT22;4375;52.486;13.424;2022-08-01T13:42:13;24.60;99.90
8676;DHT22;4375;52.486;13.424;2022-08-01T13:44:39;24.80;99.90
8676;DHT22;4375;52.486;13.424;2022-08-01T13:47:05;25.00;99.90
8676;DHT22;4375;52.486;13.424;2022-08-01T13:49:32;25.20;99.90
8676;DHT22;4375;52.486;13.424;2022-08-01T13:51:58;25.40;99.90
8676;DHT22;4375;52.486;13.424;2022-08-01T13:54:24;25.20;99.90
8676;DHT22;4375;52.486;13.424;2022-08-01T13:56:50;25.00;99.90
8676;DHT22;4375;52.486;13.424;2022-08-01T13:59:16;25.00;99.90
8676;DHT22;4375;52.486;13.424;2022-08-01T14:01:41;24.80;99.90
8676;DHT22;4375;52.486;13.424;2022-08-01T14:04:07;24.60;99.90
8676;DHT22;4375;52.486;13.424;2022-08-01T14:06:33;24.50;99.90
8676;DHT22;4375;52.486;13.424;2022-08-01T14:09:00;24.30;99.90
8676;DHT22;4375;52.486;13.424;2022-08-01T14:11:26;24.20;99.90
8676;DHT22;4375;52.486;13.424;2022-08-01T14:13:52;24.30;99.90
8676;DHT22;4375;52.486;13.424;2022-08-01T14:16:18;24.30;99.90
8676;DHT22;4375;52.486;13.424;2022-08-01T14:18:44;24.20;99.90
8676;DHT22;4375;52.486;13.424;2022-08-01T14:21:10;24.40;99.90
8676;DHT22;4375;52.486;13.424;2022-08-01T14:23:35;24.60;99.90
8676;DHT22;4375;52.486;13.424;2022-08-01T14:26:01;24.80;99.90
8676;DHT22;4375;52.486;13.424;2022-08-01T14:28:27;24.80;99.90
8676;DHT22;4375;52.486;13.424;2022-08-01T14:30:54;25.00;99.90
8676;DHT22;4375;52.486;13.424;2022-08-01T14:33:21;25.00;99.90
8676;DHT22;4375;52.486;13.424;2022-08-01T14:35:47;25.00;99.90
8676;DHT22;4375;52.486;13.424;2022-08-01T14:38:12;25.30;99.90
8676;DHT22;4375;52.486;13.424;2022-08-01T14:40:38;25.40;99.90
8676;DHT22;4375;52.486;13.424;2022-08-01T14:43:04;25.50;99.90
8676;DHT22;4375;52.486;13.424;2022-08-01T14:45:29;25.50;99.90
8676;DHT22;4375;52.486;13.424;2022-08-01T14:47:55;25.50;99.90
8676;DHT22;4375;52.486;13.424;2022-08-01T14:50:21;25.40;99.90
8676;DHT22;4375;52.486;13.424;2022-08-01T14:52:47;25.40;99.90
8676;DHT22;4375;52.486;13.424;2022-08-01T14:55:13;25.50;99.90
8676;DHT22;4375;52.486;13.424;2022-08-01T14:57:39;25.60;99.90
8676;DHT22;4375;52.486;13.424;2022-08-01T15:00:08;25.60;99.90
8676;DHT22;4375;52.486;13.424;2022-08-01T15:02:43;25.20;99.90
8676;DHT22;4375;52.486;13.424;2022-08-01T15:05:09;25.00;99.90
8676;DHT22;4375;52.486;13.424;2022-08-01T15:07:36;25.10;99.90
8676;DHT22;4375;52.486;13.424;2022-08-01T15:10:03;25.10;99.90
8676;DHT22;4375;52.486;13.424;2022-08-01T15:12:29;25.10;99.90
8676;DHT22;4375;52.486;13.424;2022-08-01T15:14:54;25.00;99.90
8676;DHT22;4375;52.486;13.424;2022-08-01T15:17:28;25.10;99.90
8676;DHT22;4375;52.486;13.424;2022-08-01T15:20:00;24.90;99.90
8676;DHT22;4375;52.486;13.424;2022-08-01T15:22:27;24.20;99.90
8676;DHT22;4375;52.486;13.424;2022-08-01T15:24:55;24.10;99.90
8676;DHT22;4375;52.486;13.424;2022-08-01T15:27:21;24.00;99.90
8676;DHT22;4375;52.486;13.424;2022-08-01T15:29:47;23.90;99.90
8676;DHT22;4375;52.486;13.424;2022-08-01T15:32:13;23.70;99.90
8676;DHT22;4375;52.486;13.424;2022-08-01T15:34:40;23.80;99.90
8676;DHT22;4375;52.486;13.424;2022-08-01T15:37:06;23.90;99.90
8676;DHT22;4375;52.486;13.424;2022-08-01T15:39:33;24.00;99.90
8676;DHT22;4375;52.486;13.424;2022-08-01T15:42:05;24.00;99.90
8676;DHT22;4375;52.486;13.424;2022-08-01T15:44:32;24.10;99.90
8676;DHT22;4375;52.486;13.424;2022-08-01T15:46:59;23.90;99.90
8676;DHT22;4375;52.486;13.424;2022-08-01T15:49:25;24.00;99.90
8676;DHT22;4375;52.486;13.424;2022-08-01T15:51:51;24.00;99.90
8676;DHT22;4375;52.486;13.424;2022-08-01T15:54:17;24.10;99.90
8676;DHT22;4375;52.486;13.424;2022-08-01T15:56:43;24.20;99.90
8676;DHT22;4375;52.486;13.424;2022-08-01T15:59:09;24.20;99.90
8676;DHT22;4375;52.486;13.424;2022-08-01T16:01:35;24.20;99.90
8676;DHT22;4375;52.486;13.424;2022-08-01T16:04:01;24.30;99.90
8676;DHT22;4375;52.486;13.424;2022-08-01T16:06:27;24.30;99.90
8676;DHT22;4375;52.486;13.424;2022-08-01T16:08:53;24.20;99.90
8676;DHT22;4375;52.486;13.424;2022-08-01T16:11:19;24.20;99.90
8676;DHT22;4375;52.486;13.424;2022-08-01T16:13:45;24.20;99.90
8676;DHT22;4375;52.486;13.424;2022-08-01T16:16:13;24.20;99.90
8676;DHT22;4375;52.486;13.424;2022-08-01T16:18:39;24.20;99.90
8676;DHT22;4375;52.486;13.424;2022-08-01T16:21:05;24.20;99.90
8676;DHT22;4375;52.486;13.424;2022-08-01T16:23:32;24.10;99.90
8676;DHT22;4375;52.486;13.424;2022-08-01T16:25:57;24.10;99.90
8676;DHT22;4375;52.486;13.424;2022-08-01T16:28:23;24.20;99.90
8676;DHT22;4375;52.486;13.424;2022-08-01T16:30:49;24.00;99.90
8676;DHT22;4375;52.486;13.424;2022-08-01T16:33:15;24.00;99.90
8676;DHT22;4375;52.486;13.424;2022-08-01T16:35:40;24.10;99.90
8676;DHT22;4375;52.486;13.424;2022-08-01T16:38:09;24.10;99.90